Wetterdaten: aktuell Montag, 17.12.2018 16:00
Datum Zeit Temp. I. Temp. A. Feuchte I. Feuchte A. Luftdruck Regen Wind Richtung Richtung Taupunkt Windchill
17.12.2018 16:00 21,2 C 5,6 C 29 % 86 % 1017 hPa 0,0 mm 0,0 km/h (0 Bft) S-SW45 200 3,4 C 5,6 C
17.12.2018 15:00 21,1 C 5,8 C 29 % 85 % 1016 hPa 0,0 mm 6,1 km/h (2 Bft) SW 225 3,5 C 4,6 C
17.12.2018 14:00 21,2 C 5,6 C 29 % 85 % 1015 hPa 0,0 mm 5,8 km/h (2 Bft) S-SW45 200 3,3 C 4,5 C
17.12.2018 13:00 21,4 C 5,3 C 29 % 85 % 1015 hPa 0,5 mm 5,4 km/h (1 Bft) S 180 3,0 C 4,3 C
17.12.2018 12:00 21,4 C 4,8 C 29 % 86 % 1015 hPa 0,0 mm 8,3 km/h (2 Bft) S-SO45 155 2,7 C 2,8 C
17.12.2018 11:00 21,1 C 4,1 C 28 % 86 % 1015 hPa 0,0 mm 7,2 km/h (2 Bft) S-SO45 155 2,0 C 2,3 C
17.12.2018 10:00 21,1 C 3,6 C 28 % 87 % 1014 hPa 0,5 mm 9,0 km/h (2 Bft) S-SO45 155 1,6 C 1,2 C
17.12.2018 09:00 20,6 C 3,1 C 29 % 87 % 1014 hPa 0,0 mm 9,0 km/h (2 Bft) S-SO45 155 1,2 C 0,6 C
17.12.2018 08:00 20,5 C 2,5 C 29 % 87 % 1013 hPa 0,0 mm 1,1 km/h (1 Bft) O-SO45 110 0,6 C 2,5 C
17.12.2018 07:00 20,5 C 2,1 C 29 % 87 % 1013 hPa 0,0 mm 5,0 km/h (1 Bft) O 90 0,2 C 0,8 C
17.12.2018 06:00 20,2 C 2,1 C 29 % 87 % 1012 hPa 0,0 mm 2,2 km/h (1 Bft) SO 135 0,2 C 2,1 C
17.12.2018 05:00 19,9 C 2,4 C 29 % 87 % 1012 hPa 0,0 mm 5,8 km/h (2 Bft) SO 135 0,5 C 0,8 C
17.12.2018 04:00 20,0 C 2,5 C 29 % 86 % 1012 hPa 0,0 mm 2,2 km/h (1 Bft) S-SO45 155 0,4 C 2,5 C
17.12.2018 03:00 20,1 C 2,4 C 29 % 86 % 1012 hPa 0,0 mm 4,0 km/h (1 Bft) S-SO45 155 0,3 C 2,4 C
17.12.2018 02:00 20,3 C 2,3 C 29 % 86 % 1012 hPa 0,0 mm 0,0 km/h (0 Bft) S-SO45 155 0,2 C 2,3 C
17.12.2018 01:00 20,5 C 2,2 C 29 % 86 % 1012 hPa 0,0 mm 5,0 km/h (1 Bft) S-SO45 155 0,1 C 0,9 C
17.12.2018 00:00 20,6 C 2,3 C 29 % 86 % 1011 hPa 0,0 mm 0,0 km/h (0 Bft) S 180 0,2 C 2,3 C
16.12.2018 23:00 20,8 C 2,1 C 29 % 86 % 1011 hPa 0,5 mm 0,0 km/h (0 Bft) S-SO45 155 0,0 C 2,1 C
16.12.2018 22:00 21,1 C 1,8 C 28 % 87 % 1011 hPa 0,0 mm 5,0 km/h (1 Bft) S-SW45 200 -0,1 C 0,5 C
16.12.2018 21:00 21,2 C 1,4 C 28 % 87 % 1010 hPa 0,0 mm 1,8 km/h (1 Bft) S 180 -0,5 C 1,4 C
16.12.2018 20:00 21,2 C 1,3 C 28 % 87 % 1010 hPa 0,0 mm 0,0 km/h (0 Bft) S 180 -0,6 C 1,3 C
16.12.2018 19:00 21,3 C 1,1 C 29 % 87 % 1010 hPa 0,5 mm 0,0 km/h (0 Bft) S 180 -0,8 C 1,1 C
16.12.2018 18:00 20,9 C 0,9 C 30 % 87 % 1009 hPa 0,0 mm 4,0 km/h (1 Bft) S-SW45 200 -1,0 C 0,9 C
16.12.2018 17:00 20,8 C 0,7 C 30 % 87 % 1009 hPa 0,0 mm 0,0 km/h (0 Bft) S 180 -1,2 C 0,7 C
_ Min-Zeit 05:00 17:00 20:00 13:00 17:00 - 17:00 - - 17:00 22:00
Minimum _ 19,9 C 0,7 C 28 % 85 % 1009 hPa - 0,0 km/h (0 Bft) - - -1,2 C 0,5 C
_ Max-Zeit 12:00 15:00 17:00 17:00 16:00 19:00 09:00 - - 15:00 16:00
Maximum _ 21,4 C 5,8 C 30 % 87 % 1017 hPa 0,5 mm 9,0 km/h
S-SO (2 Bft)
- - 3,5 C 5,6 C
Durchschnitt _ 20,8 C 2,7 C 29 % 86 % 1012 hPa #2,1 mm 3,5 km/h (1 Bft) S-SO - 0,7 C 2,0 C